Time;durP1;ratioP1;P1;durP2;ratioP2;P2;SDS_P1;SDS_P2;PMS_P1;PMS_P2;Temp;Humidity;BMP_temperature;BMP_pressure;BME280_temperature;BME280_humidity;BME280_pressure;Samples;Min_cycle;Max_cycle;Signal;HPM_P1;HPM_P2
2021/01/03 00:01:46;;;;;;;50.10;24.45;;;5.50;82.30;;;;;;5049278;28;20025;-84
2021/01/03 00:04:13;;;;;;;51.63;24.52;;;5.40;82.20;;;;;;5033547;28;20375;-84
2021/01/03 00:06:38;;;;;;;48.28;23.65;;;5.50;82.80;;;;;;5034379;28;20028;-84
2021/01/03 00:09:05;;;;;;;47.85;22.67;;;5.50;82.10;;;;;;5055563;28;20053;-84
2021/01/03 00:11:31;;;;;;;51.67;24.80;;;5.40;82.10;;;;;;5054124;28;20386;-84
2021/01/03 00:13:57;;;;;;;59.13;27.52;;;5.50;82.20;;;;;;5053079;28;20047;-84
2021/01/03 00:16:24;;;;;;;66.15;29.58;;;5.50;82.10;;;;;;5033986;28;20381;-83
2021/01/03 00:18:50;;;;;;;66.43;30.10;;;5.50;82.20;;;;;;5052412;28;20029;-84
2021/01/03 00:21:15;;;;;;;60.22;27.73;;;5.40;82.20;;;;;;5016467;28;20132;-84
2021/01/03 00:34:09;;;;;;;54.70;26.08;;;5.40;82.20;;;;;;5032032;28;20072;-87
2021/01/03 00:36:35;;;;;;;62.60;27.08;;;5.40;82.20;;;;;;4984589;28;20092;-87
2021/01/03 00:39:03;;;;;;;51.38;25.10;;;5.40;82.20;;;;;;4983977;28;20037;-87
2021/01/03 00:41:29;;;;;;;47.70;23.73;;;5.40;82.20;;;;;;4983837;28;20068;-87
2021/01/03 00:43:54;;;;;;;47.90;22.90;;;5.50;82.20;;;;;;4995075;28;20061;-86
2021/01/03 00:46:20;;;;;;;49.72;23.77;;;5.50;82.10;;;;;;4999912;28;20026;-86
2021/01/03 00:48:46;;;;;;;50.60;23.52;;;5.50;82.70;;;;;;4983769;28;20041;-86
2021/01/03 00:51:11;;;;;;;51.72;23.88;;;5.50;82.10;;;;;;4986859;28;20034;-86
2021/01/03 00:53:37;;;;;;;51.92;24.02;;;5.50;82.00;;;;;;4999820;28;20545;-86
2021/01/03 00:56:03;;;;;;;48.70;22.60;;;5.50;82.00;;;;;;4984032;28;20056;-87
2021/01/03 00:58:28;;;;;;;50.17;24.60;;;5.50;82.00;;;;;;4999757;28;20032;-86
2021/01/03 01:00:54;;;;;;;49.80;24.10;;;5.50;82.00;;;;;;5016008;28;20117;-86
2021/01/03 01:03:21;;;;;;;49.13;24.10;;;5.50;82.00;;;;;;5015097;28;20387;-86
2021/01/03 01:05:46;;;;;;;54.38;24.67;;;5.50;81.90;;;;;;5000153;28;20022;-86
2021/01/03 01:08:12;;;;;;;52.75;24.08;;;5.40;81.80;;;;;;4999978;28;20049;-86
2021/01/03 01:10:38;;;;;;;54.03;23.90;;;5.40;81.90;;;;;;4983610;28;20079;-86
2021/01/03 01:13:03;;;;;;;50.45;23.05;;;5.40;81.90;;;;;;4983475;28;20057;-86
2021/01/03 01:15:31;;;;;;;48.65;23.75;;;5.40;81.90;;;;;;4999032;28;20037;-86
2021/01/03 01:17:59;;;;;;;45.58;23.08;;;5.40;81.80;;;;;;4997823;28;20033;-86
2021/01/03 01:20:26;;;;;;;52.50;24.38;;;5.40;81.80;;;;;;4998144;28;20041;-86
2021/01/03 01:22:53;;;;;;;51.35;23.83;;;5.40;81.80;;;;;;5014165;28;20025;-86
2021/01/03 01:25:24;;;;;;;45.45;21.58;;;5.40;81.90;;;;;;4996582;28;20021;-84
2021/01/03 01:27:50;;;;;;;51.92;24.73;;;5.40;81.90;;;;;;5013424;28;20052;-86
2021/01/03 01:30:16;;;;;;;50.58;22.88;;;5.40;81.90;;;;;;4996438;28;20033;-86
2021/01/03 01:32:42;;;;;;;55.75;25.85;;;5.40;81.90;;;;;;5007082;28;20127;-86
2021/01/03 01:35:12;;;;;;;50.08;23.60;;;5.40;82.50;;;;;;5032981;28;20467;-86
2021/01/03 01:37:38;;;;;;;52.22;24.08;;;5.40;81.90;;;;;;5032882;28;20068;-86
2021/01/03 01:40:06;;;;;;;52.47;24.42;;;5.30;81.90;;;;;;5033662;28;20061;-86
2021/01/03 01:42:33;;;;;;;52.08;24.45;;;5.40;82.00;;;;;;5033361;28;20029;-86
2021/01/03 01:44:59;;;;;;;50.10;24.40;;;5.40;82.00;;;;;;5034117;28;20079;-86
2021/01/03 01:47:28;;;;;;;64.20;29.73;;;5.30;81.90;;;;;;5017192;28;20041;-86
2021/01/03 01:49:57;;;;;;;58.95;27.75;;;5.30;81.90;;;;;;5033483;28;20032;-86
2021/01/03 01:52:28;;;;;;;55.10;25.27;;;5.30;82.00;;;;;;5033887;28;20086;-86
2021/01/03 01:54:57;;;;;;;58.33;27.98;;;5.30;82.00;;;;;;5033593;28;20040;-86
2021/01/03 01:57:29;;;;;;;62.50;27.77;;;5.30;82.00;;;;;;5033651;28;20387;-86
2021/01/03 02:00:03;;;;;;;60.85;28.17;;;5.30;82.00;;;;;;5051337;28;20059;-86
2021/01/03 02:02:42;;;;;;;52.55;25.33;;;5.30;82.00;;;;;;5003124;28;20061;-86
2021/01/03 02:05:10;;;;;;;52.10;24.23;;;5.30;82.60;;;;;;5013999;28;20033;-86
2021/01/03 02:07:55;;;;;;;55.63;25.02;;;5.30;82.00;;;;;;5013612;28;20498;-86
2021/01/03 02:10:34;;;;;;;55.85;25.75;;;5.20;82.00;;;;;;5014674;28;20474;-86
2021/01/03 02:13:12;;;;;;;55.92;24.90;;;5.30;82.00;;;;;;5013736;28;20026;-86
2021/01/03 02:15:39;;;;;;;56.47;25.48;;;5.20;81.90;;;;;;5016125;28;20033;-86
2021/01/03 02:18:08;;;;;;;63.30;27.08;;;5.20;81.90;;;;;;5020467;28;20095;-86
2021/01/03 02:20:48;;;;;;;68.82;29.30;;;5.20;81.90;;;;;;5037376;28;20170;-86
2021/01/03 02:23:19;;;;;;;65.43;29.05;;;5.20;82.00;;;;;;5037204;28;20128;-86
2021/01/03 02:25:45;;;;;;;65.53;28.88;;;5.10;82.10;;;;;;5035617;28;20466;-85
2021/01/03 02:28:20;;;;;;;63.22;28.80;;;5.10;82.10;;;;;;5001469;28;20037;-86
2021/01/03 02:30:50;;;;;;;68.32;29.40;;;5.10;82.20;;;;;;5017726;28;20106;-86
2021/01/03 02:33:25;;;;;;;62.53;27.08;;;5.10;82.60;;;;;;5017025;28;20072;-86
2021/01/03 02:35:55;;;;;;;64.25;29.33;;;5.10;82.30;;;;;;5018578;28;20080;-86
2021/01/03 02:38:25;;;;;;;63.13;28.40;;;5.10;82.30;;;;;;5017090;28;20047;-86
2021/01/03 02:40:51;;;;;;;67.65;29.67;;;5.10;82.30;;;;;;5017502;28;20030;-86
2021/01/03 02:43:16;;;;;;;66.07;29.77;;;5.10;82.40;;;;;;5017101;28;20033;-86
2021/01/03 02:45:42;;;;;;;63.90;27.27;;;5.10;82.50;;;;;;5017691;28;20410;-86
2021/01/03 02:48:12;;;;;;;69.65;28.55;;;5.10;82.50;;;;;;5001468;28;20032;-86
2021/01/03 02:50:38;;;;;;;61.60;28.65;;;5.10;82.60;;;;;;5016963;28;20116;-86
2021/01/03 02:53:03;;;;;;;61.15;26.20;;;5.10;82.60;;;;;;5001197;28;20123;-86
2021/01/03 02:55:29;;;;;;;60.92;26.05;;;5.10;82.60;;;;;;5016876;28;20095;-86
2021/01/03 02:57:54;;;;;;;57.95;26.80;;;5.10;82.60;;;;;;5000773;28;20029;-86
2021/01/03 03:00:29;;;;;;;64.68;27.73;;;5.10;82.60;;;;;;5021381;28;20029;-86
2021/01/03 03:02:55;;;;;;;62.15;25.05;;;5.20;82.60;;;;;;5036820;28;20087;-86
2021/01/03 03:05:21;;;;;;;67.97;28.83;;;5.20;82.60;;;;;;5036076;28;20029;-86
2021/01/03 03:07:48;;;;;;;58.20;26.50;;;5.10;82.60;;;;;;5020372;28;20479;-87
2021/01/03 03:10:15;;;;;;;60.95;26.70;;;5.20;82.60;;;;;;5036905;28;20129;-86
2021/01/03 03:12:40;;;;;;;62.72;26.05;;;5.20;82.60;;;;;;5036610;28;20025;-86
2021/01/03 03:15:09;;;;;;;63.70;28.40;;;5.20;82.60;;;;;;5036543;28;20035;-86
2021/01/03 03:17:35;;;;;;;58.67;27.80;;;5.20;82.60;;;;;;5036133;28;20033;-86
2021/01/03 03:20:00;;;;;;;65.85;28.35;;;5.20;82.70;;;;;;5051123;28;20053;-86
2021/01/03 03:22:26;;;;;;;70.00;30.15;;;5.10;82.60;;;;;;5000120;28;20030;-86
2021/01/03 03:24:51;;;;;;;64.95;28.60;;;5.10;82.60;;;;;;5000422;28;20538;-86
2021/01/03 03:27:17;;;;;;;63.97;27.77;;;5.20;82.80;;;;;;4999387;28;20484;-86
2021/01/03 03:29:43;;;;;;;60.00;26.20;;;5.10;82.80;;;;;;5016545;28;20061;-86
2021/01/03 03:32:08;;;;;;;60.83;26.75;;;5.20;82.80;;;;;;4999989;28;20108;-86
2021/01/03 03:34:34;;;;;;;66.38;28.60;;;5.20;82.70;;;;;;5015775;28;20056;-86
2021/01/03 03:37:00;;;;;;;66.03;30.30;;;5.20;82.70;;;;;;5000207;28;20033;-87
2021/01/03 03:39:27;;;;;;;71.55;32.47;;;5.20;82.80;;;;;;5016394;28;20041;-86
2021/01/03 03:41:57;;;;;;;71.05;30.05;;;5.10;82.80;;;;;;5016392;28;20022;-86
2021/01/03 03:44:24;;;;;;;72.05;29.48;;;5.10;82.80;;;;;;4999367;28;20049;-86
2021/01/03 03:46:58;;;;;;;73.47;30.63;;;5.10;82.90;;;;;;5016297;28;20100;-86
2021/01/03 03:49:24;;;;;;;69.93;30.70;;;5.10;83.00;;;;;;5000589;28;20026;-86
2021/01/03 03:51:58;;;;;;;62.90;28.10;;;5.10;83.00;;;;;;4999835;28;20065;-86
2021/01/03 03:54:24;;;;;;;67.28;29.15;;;5.10;83.00;;;;;;4999501;28;20029;-87
2021/01/03 03:56:55;;;;;;;71.50;30.45;;;5.10;83.00;;;;;;5016176;28;20053;-87
2021/01/03 03:59:22;;;;;;;71.30;30.48;;;5.10;83.00;;;;;;5030759;28;20123;-86
2021/01/03 04:01:48;;;;;;;65.03;27.83;;;5.10;83.00;;;;;;5019362;28;20052;-86
2021/01/03 04:04:14;;;;;;;66.20;29.50;;;5.10;83.10;;;;;;5019469;28;20029;-86
2021/01/03 04:06:39;;;;;;;63.95;28.15;;;5.10;83.00;;;;;;5035390;28;20029;-86
2021/01/03 04:09:06;;;;;;;75.20;30.83;;;5.10;83.00;;;;;;5002914;28;20071;-87
2021/01/03 04:11:31;;;;;;;72.43;30.08;;;5.10;83.00;;;;;;5035152;28;20489;-86
2021/01/03 04:13:57;;;;;;;73.35;31.48;;;5.10;83.10;;;;;;5035702;28;20044;-86
2021/01/03 04:16:23;;;;;;;70.47;30.50;;;5.10;83.10;;;;;;5018992;28;20477;-86
2021/01/03 04:18:49;;;;;;;68.85;31.35;;;5.10;83.10;;;;;;5019233;28;20387;-86
2021/01/03 04:21:14;;;;;;;70.10;30.13;;;5.10;83.10;;;;;;5002656;28;20037;-86
2021/01/03 04:23:41;;;;;;;69.63;29.48;;;5.10;83.10;;;;;;5018572;28;20044;-86
2021/01/03 04:26:13;;;;;;;66.88;30.27;;;5.10;83.10;;;;;;5035271;28;20363;-86
2021/01/03 04:28:39;;;;;;;69.95;30.40;;;5.10;83.10;;;;;;5026741;28;20136;-86
2021/01/03 04:31:05;;;;;;;59.75;27.85;;;5.10;83.10;;;;;;4999195;28;20139;-86
2021/01/03 04:33:30;;;;;;;65.03;28.75;;;5.10;83.10;;;;;;4998821;28;20053;-86
2021/01/03 04:36:13;;;;;;;66.80;28.60;;;5.10;83.10;;;;;;4999350;28;20061;-86
2021/01/03 04:38:41;;;;;;;74.45;33.20;;;5.10;83.00;;;;;;5014506;28;20033;-86
2021/01/03 04:41:10;;;;;;;67.25;29.27;;;5.10;83.10;;;;;;5015580;28;20045;-86
2021/01/03 04:43:36;;;;;;;76.15;32.63;;;5.10;83.10;;;;;;5015235;28;20025;-87
2021/01/03 04:46:11;;;;;;;71.30;30.98;;;5.00;83.10;;;;;;4998951;28;20321;-86
2021/01/03 04:48:38;;;;;;;71.50;30.35;;;5.10;83.20;;;;;;5015107;28;20033;-86
2021/01/03 04:51:06;;;;;;;69.72;30.35;;;5.00;83.10;;;;;;4999204;28;20037;-86
2021/01/03 04:53:50;;;;;;;70.00;29.77;;;5.00;83.10;;;;;;5016194;28;20040;-87
2021/01/03 04:56:37;;;;;;;68.38;29.75;;;5.00;83.10;;;;;;5014984;28;20036;-86
2021/01/03 04:59:34;;;;;;;58.72;25.08;;;5.00;83.10;;;;;;5015250;28;20030;-86
2021/01/03 05:02:39;;;;;;;58.53;25.77;;;5.00;83.10;;;;;;5014956;28;20033;-86
2021/01/03 05:05:27;;;;;;;63.42;28.20;;;5.00;83.00;;;;;;5014939;28;20064;-86
2021/01/03 05:08:03;;;;;;;62.60;27.20;;;5.00;83.00;;;;;;5015059;28;20095;-86
2021/01/03 05:10:29;;;;;;;59.58;26.05;;;5.00;83.00;;;;;;5014267;28;20025;-86
2021/01/03 05:13:07;;;;;;;67.38;29.38;;;5.10;83.00;;;;;;5024355;28;20033;-86
2021/01/03 05:15:34;;;;;;;68.38;30.20;;;5.10;83.10;;;;;;5034048;28;20025;-86
2021/01/03 05:18:01;;;;;;;69.95;30.50;;;5.00;83.00;;;;;;5034074;28;20131;-86
2021/01/03 05:20:26;;;;;;;76.38;31.92;;;5.00;83.00;;;;;;5034118;28;20087;-86
2021/01/03 05:22:52;;;;;;;69.65;31.05;;;5.00;83.10;;;;;;5001182;28;20037;-86
2021/01/03 05:25:37;;;;;;;72.95;32.70;;;5.00;83.10;;;;;;5017784;28;20029;-86
2021/01/03 05:28:06;;;;;;;69.75;29.40;;;5.00;83.10;;;;;;5034142;28;20039;-86
2021/01/03 05:30:32;;;;;;;65.18;30.35;;;5.00;83.10;;;;;;5033653;28;20037;-86
2021/01/03 05:33:13;;;;;;;69.13;29.60;;;5.00;83.10;;;;;;5014235;28;20057;-86
2021/01/03 05:35:44;;;;;;;76.10;33.83;;;5.00;83.10;;;;;;5031660;28;20029;-86
2021/01/03 05:38:41;;;;;;;72.68;32.83;;;5.00;83.10;;;;;;5030627;28;20033;-86
2021/01/03 05:41:17;;;;;;;69.43;30.35;;;5.00;83.80;;;;;;5030862;28;20018;-86
2021/01/03 05:43:52;;;;;;;77.20;32.33;;;5.00;83.30;;;;;;5031747;28;20044;-86
2021/01/03 05:46:24;;;;;;;70.20;31.27;;;4.90;83.20;;;;;;5030606;28;20063;-86
2021/01/03 05:49:07;;;;;;;66.65;29.48;;;4.90;83.20;;;;;;5013981;28;20026;-86
2021/01/03 05:51:32;;;;;;;62.08;28.80;;;5.00;83.20;;;;;;5030233;28;20036;-86
2021/01/03 05:54:11;;;;;;;63.70;28.73;;;5.00;83.20;;;;;;5029553;28;20033;-86
2021/01/03 05:56:38;;;;;;;61.83;29.42;;;5.00;83.10;;;;;;5030292;28;20502;-87
2021/01/03 05:59:04;;;;;;;58.13;26.92;;;5.00;83.10;;;;;;4997803;28;20463;-86
2021/01/03 06:01:33;;;;;;;68.40;30.60;;;5.00;83.00;;;;;;5030060;28;20036;-86
2021/01/03 06:04:10;;;;;;;68.00;29.65;;;5.00;83.00;;;;;;5030597;28;20053;-86
2021/01/03 06:06:42;;;;;;;64.65;28.85;;;5.00;83.10;;;;;;5013579;28;20097;-86
2021/01/03 06:09:10;;;;;;;66.88;29.33;;;5.00;83.10;;;;;;5030324;28;20035;-86
2021/01/03 06:11:36;;;;;;;65.88;29.98;;;5.00;83.10;;;;;;5030328;28;20033;-86
2021/01/03 06:14:02;;;;;;;73.72;32.92;;;5.00;83.10;;;;;;5013860;28;20054;-86
2021/01/03 06:16:39;;;;;;;69.15;30.73;;;4.90;83.20;;;;;;5029838;28;20033;-86
2021/01/03 06:19:37;;;;;;;75.03;31.95;;;4.90;83.30;;;;;;5030268;28;20026;-86
2021/01/03 06:22:17;;;;;;;73.93;30.65;;;4.90;83.50;;;;;;5030818;28;20361;-86
2021/01/03 06:24:42;;;;;;;71.60;30.55;;;4.90;83.40;;;;;;5040483;23;20049;-91
2021/01/03 06:27:19;;;;;;;65.32;30.23;;;4.90;83.40;;;;;;5034388;28;20762;-90
2021/01/03 06:30:06;;;;;;;59.72;28.55;;;5.00;83.50;;;;;;5034072;28;20028;-90
2021/01/03 06:33:13;;;;;;;62.55;28.20;;;5.00;83.50;;;;;;5033578;28;20036;-90
2021/01/03 06:35:45;;;;;;;62.38;27.70;;;4.90;83.50;;;;;;4990091;28;20102;-90
2021/01/03 06:38:41;;;;;;;67.22;30.98;;;4.90;83.40;;;;;;5051753;28;20498;-91
2021/01/03 06:41:15;;;;;;;76.30;33.08;;;4.90;83.40;;;;;;5034253;28;20049;-86
2021/01/03 06:44:17;;;;;;;68.72;30.42;;;4.90;83.50;;;;;;5049688;28;20025;-85
2021/01/03 06:47:06;;;;;;;70.97;31.25;;;4.90;83.60;;;;;;5049056;28;20026;-85
2021/01/03 06:50:13;;;;;;;63.22;28.88;;;4.90;83.60;;;;;;5031934;28;20347;-85
2021/01/03 06:52:41;;;;;;;66.68;29.27;;;4.90;83.60;;;;;;5031064;28;20132;-84
2021/01/03 06:55:24;;;;;;;70.78;32.20;;;4.90;83.60;;;;;;5031898;28;20120;-85
2021/01/03 06:57:50;;;;;;;67.03;30.60;;;4.90;83.70;;;;;;5031499;28;20033;-85
2021/01/03 07:00:39;;;;;;;63.33;28.42;;;4.90;83.60;;;;;;5031897;28;20025;-88
2021/01/03 07:03:11;;;;;;;68.20;30.63;;;4.90;83.60;;;;;;5034210;28;20505;-89
2021/01/03 07:05:47;;;;;;;58.67;28.70;;;4.90;83.50;;;;;;5035663;28;20228;-89
2021/01/03 07:08:16;;;;;;;84.40;37.30;;;4.90;83.50;;;;;;5031100;28;20097;-88
2021/01/03 07:10:43;;;;;;;75.80;34.72;;;4.80;83.40;;;;;;5036383;28;20064;-89
2021/01/03 07:13:25;;;;;;;75.57;33.50;;;4.80;83.60;;;;;;5036078;28;20029;-89
2021/01/03 07:15:51;;;;;;;65.95;30.40;;;4.80;83.60;;;;;;5035926;28;20036;-89
2021/01/03 07:18:27;;;;;;;64.35;29.75;;;4.80;83.60;;;;;;5013104;28;20029;-89
2021/01/03 07:20:57;;;;;;;71.47;31.52;;;4.80;83.60;;;;;;5029596;28;20478;-88
2021/01/03 07:23:36;;;;;;;65.47;29.83;;;4.80;83.60;;;;;;5029828;28;20042;-86
2021/01/03 07:26:29;;;;;;;65.20;31.40;;;4.80;83.60;;;;;;5017461;28;20045;-85
2021/01/03 07:29:21;;;;;;;60.33;28.08;;;4.80;83.60;;;;;;5030058;28;20037;-87
2021/01/03 07:32:05;;;;;;;65.15;29.20;;;4.80;83.50;;;;;;5019499;28;20037;-87
2021/01/03 07:34:35;;;;;;;63.20;29.17;;;4.80;83.50;;;;;;4983359;28;20036;-88
2021/01/03 07:37:13;;;;;;;62.08;29.35;;;4.80;83.60;;;;;;5029381;28;20068;-87
2021/01/03 07:39:59;;;;;;;68.72;31.83;;;4.80;83.50;;;;;;5020894;28;20017;-87
2021/01/03 07:42:31;;;;;;;55.28;27.25;;;4.80;83.60;;;;;;5015577;28;20017;-87
2021/01/03 07:44:59;;;;;;;59.83;28.65;;;4.80;83.60;;;;;;5033418;28;20022;-88
2021/01/03 07:47:40;;;;;;;66.32;30.05;;;4.80;83.50;;;;;;5015596;28;20036;-87
2021/01/03 07:50:21;;;;;;;72.53;31.40;;;4.80;83.60;;;;;;5037140;28;20033;-87
2021/01/03 07:52:51;;;;;;;67.72;30.85;;;4.80;83.80;;;;;;5030629;28;20174;-88
2021/01/03 07:55:23;;;;;;;58.05;28.17;;;4.80;83.80;;;;;;5035377;28;20128;-87
2021/01/03 07:58:01;;;;;;;64.78;30.45;;;4.80;83.80;;;;;;5034914;28;20029;-87
2021/01/03 08:00:30;;;;;;;62.25;29.88;;;4.80;83.70;;;;;;5053181;28;20120;-89
2021/01/03 08:03:01;;;;;;;65.15;30.85;;;4.80;83.70;;;;;;5035649;28;20021;-90
2021/01/03 08:05:29;;;;;;;60.38;29.98;;;4.70;83.50;;;;;;5035787;28;20021;-90
2021/01/03 08:08:02;;;;;;;54.00;26.52;;;4.80;83.50;;;;;;5034278;28;20025;-84
2021/01/03 08:10:28;;;;;;;57.28;28.20;;;4.80;83.40;;;;;;5051598;28;20445;-84
2021/01/03 08:13:02;;;;;;;51.28;26.00;;;4.80;83.30;;;;;;5001423;28;20040;-84
2021/01/03 08:15:31;;;;;;;56.38;28.00;;;4.80;83.30;;;;;;5044604;28;20104;-84
2021/01/03 08:18:01;;;;;;;;;;;4.70;83.20;;;;;;5034979;28;20025;-83
2021/01/03 08:20:27;;;;;;;53.10;25.48;;;4.70;83.10;;;;;;5049382;28;19951;-84
2021/01/03 08:22:53;;;;;;;53.83;26.35;;;4.70;83.10;;;;;;5033919;28;20029;-84
2021/01/03 08:25:24;;;;;;;53.20;26.00;;;4.70;83.10;;;;;;5017544;28;20045;-84
2021/01/03 08:28:07;;;;;;;49.30;25.55;;;4.70;83.10;;;;;;5033769;28;20489;-84
2021/01/03 08:30:36;;;;;;;50.15;23.73;;;4.70;83.00;;;;;;5051888;28;20480;-84
2021/01/03 08:33:15;;;;;;;48.83;25.52;;;4.70;82.90;;;;;;5034271;28;20028;-90
2021/01/03 08:35:41;;;;;;;47.35;24.30;;;4.70;82.80;;;;;;5034596;28;20029;-90
2021/01/03 08:38:07;;;;;;;51.63;26.50;;;4.70;82.80;;;;;;5018318;28;20040;-90
2021/01/03 08:40:37;;;;;;;49.05;25.38;;;4.70;82.60;;;;;;5017945;28;20389;-84
2021/01/03 08:43:18;;;;;;;48.50;24.70;;;4.70;82.70;;;;;;5033225;28;20025;-84
2021/01/03 08:45:46;;;;;;;51.45;25.73;;;4.70;82.60;;;;;;5051495;28;20082;-84
2021/01/03 08:48:18;;;;;;;49.93;26.37;;;4.70;82.60;;;;;;5024954;28;20025;-89
2021/01/03 08:50:44;;;;;;;48.13;25.77;;;4.70;82.50;;;;;;5023895;28;20059;-90
2021/01/03 08:53:22;;;;;;;46.72;24.67;;;4.70;82.50;;;;;;5018151;28;20043;-90
2021/01/03 08:55:48;;;;;;;47.45;24.38;;;4.70;82.40;;;;;;5034407;28;20040;-90
2021/01/03 08:58:20;;;;;;;42.28;22.48;;;4.70;82.40;;;;;;5034504;28;20075;-90
2021/01/03 09:00:59;;;;;;;38.80;21.73;;;4.70;82.30;;;;;;5034403;28;20055;-90
2021/01/03 09:03:26;;;;;;;38.97;22.10;;;4.80;82.30;;;;;;5034360;28;20029;-90
2021/01/03 09:05:52;;;;;;;37.88;21.15;;;4.70;82.10;;;;;;5017865;28;20052;-90
2021/01/03 09:08:29;;;;;;;36.95;19.42;;;4.80;82.20;;;;;;5018106;28;20032;-90
2021/01/03 09:11:05;;;;;;;36.60;20.23;;;4.80;82.10;;;;;;5034458;28;20080;-90
2021/01/03 09:13:32;;;;;;;35.55;19.05;;;4.80;81.80;;;;;;5034162;28;20032;-88
2021/01/03 09:16:21;;;;;;;32.67;19.00;;;4.80;81.70;;;;;;5008307;28;20363;-87
2021/01/03 09:19:11;;;;;;;;;;;4.80;81.60;;;;;;5030643;28;20120;-87
2021/01/03 09:21:53;;;;;;;34.60;19.85;;;4.80;81.50;;;;;;5027384;28;19986;-88
2021/01/03 09:24:23;;;;;;;37.22;19.00;;;4.80;81.20;;;;;;5025651;28;20498;-86
2021/01/03 09:26:49;;;;;;;35.13;18.10;;;4.80;81.10;;;;;;5013209;28;20057;-86
2021/01/03 09:29:20;;;;;;;37.33;20.02;;;4.80;81.00;;;;;;5005226;28;20414;-84
2021/01/03 09:32:00;;;;;;;34.05;18.73;;;4.80;80.90;;;;;;5042774;28;20106;-86
2021/01/03 09:34:48;;;;;;;29.88;17.60;;;4.80;80.70;;;;;;5037179;28;20021;-89
2021/01/03 09:37:34;;;;;;;28.93;16.47;;;4.80;80.50;;;;;;5030608;28;20025;-90
2021/01/03 09:40:22;;;;;;;31.20;18.27;;;4.70;80.20;;;;;;5033107;28;20028;-89
2021/01/03 09:43:25;;;;;;;29.95;17.27;;;4.70;80.20;;;;;;5043797;28;20047;-89
2021/01/03 09:46:05;;;;;;;31.92;17.95;;;4.70;79.90;;;;;;5029933;28;20021;-90
2021/01/03 09:48:37;;;;;;;29.48;16.92;;;4.70;79.80;;;;;;5045980;28;20021;-90
2021/01/03 09:51:28;;;;;;;25.23;15.82;;;4.70;79.80;;;;;;5033706;28;20025;-90
2021/01/03 09:54:08;;;;;;;24.60;14.55;;;4.70;79.90;;;;;;5025049;28;20080;-89
2021/01/03 09:56:37;;;;;;;27.83;15.63;;;4.70;79.80;;;;;;5024254;28;20026;-89
2021/01/03 09:59:11;;;;;;;;;;;4.70;79.60;;;;;;5023169;28;20071;-92
2021/01/03 10:02:15;;;;;;;24.20;14.70;;;4.70;79.50;;;;;;5026818;28;19910;-90
2021/01/03 10:04:44;;;;;;;22.67;13.43;;;4.70;79.30;;;;;;4919083;29;20027;-90
2021/01/03 10:07:25;;;;;;;;;;;4.70;79.30;;;;;;5013770;28;20094;-90
2021/01/03 10:10:06;;;;;;;21.10;12.55;;;4.70;79.20;;;;;;5025728;28;19909;-90
2021/01/03 10:12:39;;;;;;;20.63;12.70;;;4.70;79.00;;;;;;5026066;28;20033;-91
2021/01/03 10:15:19;;;;;;;20.63;12.27;;;4.70;79.10;;;;;;5034857;28;20033;-90
2021/01/03 10:18:00;;;;;;;20.45;11.93;;;4.70;79.10;;;;;;5032179;28;20037;-91
2021/01/03 10:20:38;;;;;;;21.80;12.68;;;4.70;78.90;;;;;;5034105;28;20028;-91
2021/01/03 10:23:06;;;;;;;19.90;11.90;;;4.70;78.70;;;;;;5049207;28;20441;-91
2021/01/03 10:25:31;;;;;;;19.50;12.02;;;4.70;78.50;;;;;;5045864;28;20084;-91
2021/01/03 10:28:08;;;;;;;20.83;11.50;;;4.70;78.60;;;;;;5015216;28;20049;-91
2021/01/03 10:30:34;;;;;;;18.65;11.05;;;4.70;78.50;;;;;;5026405;28;20479;-91
2021/01/03 10:33:00;;;;;;;18.40;10.70;;;4.70;78.50;;;;;;5024338;28;20041;-90
2021/01/03 10:35:26;;;;;;;16.17;10.02;;;4.70;78.30;;;;;;5017923;28;20025;-90
2021/01/03 10:37:52;;;;;;;17.83;10.48;;;4.80;78.40;;;;;;5038996;28;20074;-91
2021/01/03 10:40:19;;;;;;;16.83;10.45;;;4.80;78.20;;;;;;5028631;28;20021;-89
2021/01/03 10:42:45;;;;;;;19.08;10.70;;;4.80;78.30;;;;;;5032952;28;20036;-91
2021/01/03 10:45:12;;;;;;;16.20;10.10;;;4.80;78.60;;;;;;5021555;28;20033;-92
2021/01/03 10:47:40;;;;;;;14.75;9.60;;;4.80;77.90;;;;;;5015624;28;20042;-91
2021/01/03 10:50:06;;;;;;;15.27;9.93;;;4.80;78.00;;;;;;5011695;28;20039;-91
2021/01/03 10:52:32;;;;;;;18.85;11.05;;;4.80;78.00;;;;;;5018899;28;20037;-91
2021/01/03 10:54:57;;;;;;;17.65;10.23;;;4.80;77.80;;;;;;5019016;28;20036;-90
2021/01/03 10:57:23;;;;;;;15.65;9.82;;;4.80;77.80;;;;;;5002559;28;20087;-91
2021/01/03 10:59:49;;;;;;;17.00;9.77;;;4.80;77.70;;;;;;5018757;28;20065;-91
2021/01/03 11:02:14;;;;;;;14.75;9.23;;;4.80;77.70;;;;;;5002161;28;20029;-91
2021/01/03 11:04:40;;;;;;;15.00;8.82;;;4.80;77.60;;;;;;5011299;28;20025;-91
2021/01/03 11:07:06;;;;;;;14.85;9.40;;;4.80;77.60;;;;;;5018320;28;20029;-92
2021/01/03 11:09:34;;;;;;;17.23;10.05;;;4.90;78.10;;;;;;5018627;28;20017;-91
2021/01/03 11:12:18;;;;;;;15.27;9.13;;;4.90;77.40;;;;;;5006925;28;20029;-91
2021/01/03 11:14:45;;;;;;;16.27;9.70;;;4.90;77.60;;;;;;5026241;28;20067;-91
2021/01/03 11:17:13;;;;;;;16.92;9.75;;;4.90;77.60;;;;;;5038706;28;20090;-92
2021/01/03 11:19:42;;;;;;;13.95;8.43;;;4.90;77.60;;;;;;5038237;28;20364;-90
2021/01/03 11:22:11;;;;;;;14.80;9.18;;;4.90;77.60;;;;;;5019028;28;20022;-92
2021/01/03 11:24:38;;;;;;;15.25;9.63;;;4.90;77.60;;;;;;5030895;28;20048;-88
2021/01/03 11:27:06;;;;;;;14.45;9.30;;;4.90;77.60;;;;;;5016373;28;20033;-89
2021/01/03 11:29:32;;;;;;;16.05;9.80;;;4.90;77.50;;;;;;5038284;28;20040;-92
2021/01/03 11:32:00;;;;;;;16.23;9.88;;;5.00;77.50;;;;;;5021506;28;20039;-92
2021/01/03 11:34:28;;;;;;;13.88;9.07;;;5.00;77.60;;;;;;5034048;28;20032;-90
2021/01/03 11:36:57;;;;;;;14.70;8.88;;;5.00;77.50;;;;;;5030170;28;20557;-89
2021/01/03 11:39:25;;;;;;;15.55;10.07;;;5.00;77.40;;;;;;5037720;28;20045;-91
2021/01/03 11:41:51;;;;;;;14.57;8.80;;;5.00;77.00;;;;;;5037722;28;20052;-90
2021/01/03 11:44:19;;;;;;;15.75;8.80;;;5.00;76.70;;;;;;5037814;28;20021;-91
2021/01/03 11:46:46;;;;;;;13.10;8.10;;;5.00;76.80;;;;;;5037944;28;20028;-90
2021/01/03 11:49:13;;;;;;;15.38;9.05;;;5.00;76.70;;;;;;5038244;28;20036;-91
2021/01/03 11:51:38;;;;;;;16.13;9.63;;;5.00;76.90;;;;;;5036077;28;20033;-90
2021/01/03 11:54:04;;;;;;;14.40;8.20;;;4.90;76.90;;;;;;5009208;28;20091;-90
2021/01/03 11:56:33;;;;;;;13.02;8.70;;;5.00;76.60;;;;;;5016846;28;20124;-90
2021/01/03 11:58:59;;;;;;;11.95;7.63;;;4.90;76.40;;;;;;5002059;28;20033;-92
2021/01/03 12:01:26;;;;;;;13.07;8.38;;;5.00;77.10;;;;;;5015425;28;20040;-87
2021/01/03 12:03:52;;;;;;;17.13;8.63;;;4.90;76.20;;;;;;5016998;28;20132;-87
2021/01/03 12:06:23;;;;;;;12.25;7.78;;;5.00;76.40;;;;;;5031617;28;20485;-88
2021/01/03 12:08:49;;;;;;;12.73;8.15;;;5.00;76.30;;;;;;5036689;28;20360;-88
2021/01/03 12:11:23;;;;;;;12.77;7.65;;;4.90;75.70;;;;;;5037034;28;20430;-88
2021/01/03 12:13:52;;;;;;;11.60;7.25;;;5.00;76.00;;;;;;5036717;28;20386;-89
2021/01/03 12:16:24;;;;;;;12.48;8.10;;;5.00;76.20;;;;;;5037429;28;20025;-89
2021/01/03 12:18:50;;;;;;;13.95;8.10;;;5.00;76.10;;;;;;5036953;28;20116;-88
2021/01/03 12:21:30;;;;;;;12.35;7.75;;;5.00;76.10;;;;;;5036324;28;20096;-88
2021/01/03 12:34:58;;;;;;;11.43;7.15;;;5.00;76.10;;;;;;4974287;28;20067;-88
2021/01/03 12:38:22;;;;;;;;;;;;;;;;;;;;;
2021/01/03 12:44:12;;;;;;;10.02;6.68;;;5.00;76.10;;;;;;4962472;28;20090;-88
2021/01/03 12:46:43;;;;;;;10.27;6.65;;;5.00;76.10;;;;;;5035165;28;20029;-88
2021/01/03 12:49:39;;;;;;;9.45;6.57;;;5.00;75.80;;;;;;5029315;28;20028;-89
2021/01/03 12:55:48;;;;;;;;;;;5.00;75.80;;;;;;4944173;28;20070;-88
2021/01/03 12:58:39;;;;;;;10.27;6.97;;;5.00;75.40;;;;;;5019186;28;20351;-88
2021/01/03 13:01:55;;;;;;;11.43;6.90;;;4.90;75.10;;;;;;5004864;28;20083;-88
2021/01/03 13:04:30;;;;;;;9.73;6.80;;;4.90;75.20;;;;;;4958058;28;20041;-88
2021/01/03 13:06:56;;;;;;;9.77;7.05;;;4.90;75.30;;;;;;4965964;28;20037;-87
2021/01/03 13:09:33;;;;;;;11.32;6.90;;;4.90;75.10;;;;;;5019649;28;20037;-88
2021/01/03 13:19:47;;;;;;;10.45;7.53;;;5.00;75.50;;;;;;4956121;28;20054;-88
2021/01/03 13:27:11;;;;;;;;;;;;;;;;;;;;;
2021/01/03 13:36:20;;;;;;;11.68;8.05;;;5.00;75.40;;;;;;4861178;29;20094;-88
2021/01/03 13:39:16;;;;;;;;;;;;;;;;;;;;;
2021/01/03 13:41:42;;;;;;;12.73;8.55;;;5.00;75.30;;;;;;4952719;29;20043;-88
2021/01/03 13:48:08;;;;;;;11.82;8.32;;;5.00;75.20;;;;;;4910029;29;20038;-88
2021/01/03 13:54:25;;;;;;;11.88;8.55;;;5.00;75.30;;;;;;4949956;29;20552;-88
2021/01/03 13:57:18;;;;;;;12.48;7.93;;;5.00;75.30;;;;;;4948749;28;20062;-88
2021/01/03 14:03:06;;;;;;;14.20;8.95;;;5.00;75.50;;;;;;4989622;28;20089;-88
2021/01/03 14:05:31;;;;;;;14.30;8.77;;;5.00;75.50;;;;;;4974362;28;20022;-87
2021/01/03 14:07:57;;;;;;;13.15;8.30;;;5.00;75.40;;;;;;4974482;28;20046;-87